createdAt,value
2022-12-07T06:19:44.957Z,2.68
2022-12-07T06:20:20.204Z,2.66
2022-12-07T06:20:51.775Z,2.71
2022-12-07T06:21:23.449Z,2.72
2022-12-07T06:21:55.906Z,2.68
2022-12-07T06:22:27.561Z,2.62
2022-12-07T06:22:59.191Z,2.63
2022-12-07T06:23:30.789Z,2.75
2022-12-07T06:24:02.862Z,2.69
2022-12-07T06:24:34.947Z,2.51
2022-12-07T06:25:08.852Z,2.40
2022-12-07T06:25:40.653Z,2.34
2022-12-07T06:26:12.225Z,2.35
2022-12-07T06:26:44.067Z,2.34
2022-12-07T06:27:15.700Z,2.30
2022-12-07T06:27:47.311Z,2.28
2022-12-07T06:28:18.919Z,2.31
2022-12-07T06:28:50.730Z,2.35
2022-12-07T06:29:23.078Z,2.38
2022-12-07T06:29:54.667Z,2.44
2022-12-07T06:30:26.231Z,2.34
2022-12-07T06:30:59.963Z,2.13
2022-12-07T06:31:31.753Z,2.04
2022-12-07T06:32:04.378Z,2.01
2022-12-07T06:32:37.762Z,2.15
2022-12-07T06:33:09.493Z,2.23
2022-12-07T06:33:41.757Z,2.30
2022-12-07T06:34:16.115Z,2.23
2022-12-07T06:34:48.547Z,2.23
2022-12-07T06:35:20.160Z,2.07
2022-12-07T06:35:52.288Z,2.06
2022-12-07T06:36:27.187Z,2.01
2022-12-07T06:36:59.090Z,2.10
2022-12-07T06:37:30.696Z,2.20
2022-12-07T06:38:02.812Z,2.13
2022-12-07T06:38:34.438Z,2.14
2022-12-07T06:39:06.864Z,2.13
2022-12-07T06:39:39.420Z,2.13
2022-12-07T06:40:11.483Z,1.99
2022-12-07T06:40:43.055Z,1.97
2022-12-07T06:41:14.639Z,2.03
2022-12-07T06:41:46.519Z,2.09
2022-12-07T06:42:18.079Z,2.24
2022-12-07T06:42:49.639Z,2.21
2022-12-07T06:43:21.277Z,2.27
2022-12-07T06:43:56.280Z,2.34
2022-12-07T06:44:28.116Z,2.44
2022-12-07T06:44:59.699Z,2.38
2022-12-07T06:45:31.417Z,2.40
2022-12-07T06:46:03.095Z,2.40
2022-12-07T06:46:36.481Z,2.30
2022-12-07T06:48:00.616Z,2.21
2022-12-07T06:48:32.582Z,2.25
2022-12-07T06:49:05.758Z,2.25
2022-12-07T06:49:37.399Z,2.25
2022-12-07T06:50:09.400Z,2.28
2022-12-07T06:50:41.070Z,2.34
2022-12-07T06:51:12.734Z,2.34
2022-12-07T06:51:44.967Z,2.31
2022-12-07T06:52:16.563Z,2.34
2022-12-07T06:52:48.156Z,2.44
2022-12-07T06:53:19.717Z,2.46
2022-12-07T06:53:51.350Z,2.45
2022-12-07T06:54:23.016Z,2.46
2022-12-07T06:54:54.614Z,2.49
2022-12-07T06:55:26.267Z,2.45
2022-12-07T06:55:57.870Z,2.49
2022-12-07T06:56:29.930Z,2.49
2022-12-07T06:57:01.598Z,2.51
2022-12-07T06:57:33.191Z,2.46
2022-12-07T06:58:04.818Z,2.48
2022-12-07T06:58:36.446Z,2.49
2022-12-07T06:59:08.785Z,2.52
2022-12-07T06:59:40.547Z,2.55
2022-12-07T07:00:19.866Z,2.61
2022-12-07T07:00:53.360Z,2.69
2022-12-07T07:01:25.098Z,2.66
2022-12-07T07:01:56.929Z,2.73
2022-12-07T07:02:28.577Z,2.78
2022-12-07T07:03:00.172Z,2.75
2022-12-07T07:03:31.762Z,2.73
2022-12-07T07:04:03.484Z,2.73
2022-12-07T07:04:35.114Z,2.68
2022-12-07T07:05:07.019Z,2.61
2022-12-07T07:05:41.668Z,2.66
2022-12-07T07:06:14.330Z,2.66
2022-12-07T07:06:45.906Z,2.62
2022-12-07T07:07:17.490Z,2.65
2022-12-07T07:08:20.818Z,2.66
2022-12-07T07:08:43.473Z,2.58
2022-12-07T07:09:15.130Z,2.66
2022-12-07T07:09:46.768Z,2.66
2022-12-07T07:10:18.518Z,2.62
2022-12-07T07:10:50.977Z,2.62
2022-12-07T07:11:22.651Z,2.63
2022-12-07T07:11:54.254Z,2.63
2022-12-07T07:12:25.857Z,2.63
2022-12-07T07:12:57.946Z,2.53
2022-12-07T07:13:30.004Z,2.58
2022-12-07T07:14:03.384Z,2.62
2022-12-07T07:14:35.043Z,2.56
2022-12-07T07:15:07.356Z,2.51
2022-12-07T07:15:39.454Z,2.56
2022-12-07T07:16:11.614Z,2.61
2022-12-07T07:16:43.237Z,2.61
2022-12-07T07:17:14.883Z,2.62
2022-12-07T07:17:46.498Z,2.69
2022-12-07T07:18:18.187Z,2.66
2022-12-07T07:18:49.772Z,2.69
2022-12-07T07:19:21.480Z,2.79
2022-12-07T07:19:53.104Z,2.81
2022-12-07T07:20:25.100Z,2.81
2022-12-07T07:20:57.007Z,2.89
2022-12-07T07:21:28.600Z,2.86
2022-12-07T07:22:00.183Z,2.85
2022-12-07T07:22:31.841Z,2.88
2022-12-07T07:23:03.726Z,2.86
2022-12-07T07:23:35.304Z,2.81
2022-12-07T07:24:07.273Z,2.78
2022-12-07T07:24:38.903Z,2.83
2022-12-07T07:25:10.641Z,2.82
2022-12-07T07:25:42.248Z,2.76
2022-12-07T07:26:16.341Z,2.81
2022-12-07T07:26:50.279Z,2.82
2022-12-07T07:27:21.887Z,2.86
2022-12-07T07:27:53.444Z,2.83
2022-12-07T07:28:25.013Z,2.82
2022-12-07T07:28:56.705Z,2.78
2022-12-07T07:29:28.251Z,2.78
2022-12-07T07:30:00.094Z,2.79
2022-12-07T07:30:32.160Z,2.82
2022-12-07T07:31:03.901Z,2.88
2022-12-07T07:31:36.658Z,2.78
2022-12-07T07:32:08.715Z,2.79
2022-12-07T07:32:40.298Z,2.85
2022-12-07T07:33:12.694Z,2.88
2022-12-07T07:33:44.359Z,2.88
2022-12-07T07:34:15.959Z,2.90
2022-12-07T07:34:47.522Z,2.93
2022-12-07T07:35:19.081Z,2.92
2022-12-07T07:35:50.683Z,2.99
2022-12-07T07:36:22.248Z,2.92
2022-12-07T07:36:53.857Z,2.92
2022-12-07T07:37:25.923Z,2.89
2022-12-07T07:37:57.979Z,2.82
2022-12-07T07:38:29.579Z,2.96
2022-12-07T07:39:01.267Z,2.92
2022-12-07T07:39:32.920Z,2.97
2022-12-07T07:40:05.371Z,2.97
2022-12-07T07:40:37.781Z,2.97
2022-12-07T07:41:09.421Z,2.95
2022-12-07T07:41:40.979Z,3.00
2022-12-07T07:42:12.626Z,3.04
2022-12-07T07:42:44.233Z,3.06
2022-12-07T07:43:15.902Z,3.14
2022-12-07T07:43:47.560Z,3.21
2022-12-07T07:44:19.152Z,3.23
2022-12-07T07:44:50.739Z,3.23
2022-12-07T07:45:24.967Z,3.17
2022-12-07T07:45:56.549Z,3.14
2022-12-07T07:46:28.282Z,3.13
2022-12-07T07:46:59.935Z,3.20
2022-12-07T07:47:31.527Z,3.27
2022-12-07T07:48:03.162Z,3.23
2022-12-07T07:48:35.007Z,3.33
2022-12-07T07:49:06.571Z,3.41
2022-12-07T07:49:41.853Z,3.37
2022-12-07T07:50:17.088Z,3.38
2022-12-07T07:50:48.641Z,3.40
2022-12-07T07:51:20.242Z,3.48
2022-12-07T07:51:51.832Z,3.47
2022-12-07T07:52:23.454Z,3.50
2022-12-07T07:52:55.049Z,3.57
2022-12-07T07:53:26.651Z,3.58
2022-12-07T07:53:58.235Z,3.58
2022-12-07T07:54:29.868Z,3.70
2022-12-07T07:55:01.505Z,3.52
2022-12-07T07:55:33.071Z,3.57
2022-12-07T07:56:05.083Z,3.64
2022-12-07T07:56:36.698Z,3.68
2022-12-07T07:57:08.295Z,3.74
2022-12-07T07:57:41.425Z,3.86
2022-12-07T07:58:13.014Z,3.85
2022-12-07T07:58:44.609Z,3.71
2022-12-07T07:59:16.862Z,3.75
2022-12-07T07:59:48.483Z,3.61
2022-12-07T08:00:20.335Z,3.62
2022-12-07T08:00:52.338Z,3.70
2022-12-07T08:01:24.200Z,3.70
2022-12-07T08:01:55.994Z,3.79
2022-12-07T08:02:30.567Z,3.68
2022-12-07T08:03:02.167Z,3.52
2022-12-07T08:03:33.976Z,3.41
2022-12-07T08:04:05.571Z,3.60
2022-12-07T08:04:37.180Z,3.74
2022-12-07T08:05:09.090Z,3.83
2022-12-07T08:05:40.792Z,3.85
2022-12-07T08:06:12.421Z,3.75
2022-12-07T08:06:44.165Z,3.88
2022-12-07T08:07:16.735Z,3.83
2022-12-07T08:07:48.450Z,3.92
2022-12-07T08:08:20.157Z,3.99
2022-12-07T08:08:51.854Z,4.09
2022-12-07T08:09:23.763Z,4.03
2022-12-07T08:09:55.381Z,4.00
2022-12-07T08:10:27.113Z,4.07
2022-12-07T08:11:01.729Z,4.07
2022-12-07T08:11:33.380Z,4.07
2022-12-07T08:12:05.542Z,4.14
2022-12-07T08:13:00.930Z,4.24
2022-12-07T08:13:32.657Z,4.26
2022-12-07T08:14:04.787Z,4.36
2022-12-07T08:14:36.522Z,4.43
2022-12-07T08:15:08.465Z,4.20
2022-12-07T08:15:42.604Z,4.29
2022-12-07T08:16:16.278Z,4.43
2022-12-07T08:16:48.048Z,4.26
2022-12-07T08:17:19.625Z,4.21
2022-12-07T08:17:51.176Z,4.26
2022-12-07T08:18:22.768Z,4.21
2022-12-07T08:18:54.441Z,4.12
2022-12-07T08:19:26.249Z,4.28
2022-12-07T08:19:57.874Z,4.14
2022-12-07T08:20:31.967Z,4.26
2022-12-07T08:21:04.900Z,4.41
2022-12-07T08:21:36.504Z,4.47
2022-12-07T08:22:08.163Z,4.44
2022-12-07T08:22:39.719Z,4.58
2022-12-07T08:23:11.677Z,4.47
2022-12-07T08:23:43.824Z,4.57
2022-12-07T08:24:16.030Z,4.65
2022-12-07T08:24:47.665Z,4.56
2022-12-07T08:25:19.544Z,4.49
2022-12-07T08:25:51.173Z,4.49
2022-12-07T08:26:22.793Z,4.50
2022-12-07T08:26:54.506Z,4.60
2022-12-07T08:27:28.007Z,4.60
2022-12-07T08:28:01.464Z,4.72
2022-12-07T08:28:33.605Z,4.85
2022-12-07T08:29:05.237Z,4.72
2022-12-07T08:29:37.147Z,4.68
2022-12-07T08:30:09.067Z,4.70
2022-12-07T08:30:40.746Z,4.82
2022-12-07T08:31:15.580Z,4.87
2022-12-07T08:31:47.463Z,4.82
2022-12-07T08:32:19.095Z,4.74
2022-12-07T08:32:50.975Z,4.88
2022-12-07T08:33:24.053Z,4.92
2022-12-07T08:33:56.332Z,4.93
2022-12-07T08:34:28.083Z,4.87
2022-12-07T08:34:59.647Z,4.78
2022-12-07T08:35:33.434Z,4.82
2022-12-07T08:36:12.882Z,4.91
2022-12-07T08:36:44.445Z,4.82
2022-12-07T08:37:16.051Z,4.82
2022-12-07T08:37:47.636Z,4.99
2022-12-07T08:38:19.323Z,5.07
2022-12-07T08:39:29.357Z,5.07
2022-12-07T08:39:43.031Z,5.07
2022-12-07T08:40:19.878Z,5.08
2022-12-07T08:40:58.246Z,5.28
2022-12-07T08:41:30.150Z,5.29
2022-12-07T08:42:01.755Z,5.30
2022-12-07T08:42:38.903Z,5.25
2022-12-07T08:43:10.533Z,5.29
2022-12-07T08:43:42.222Z,5.33
2022-12-07T08:44:13.826Z,5.42
2022-12-07T08:44:46.747Z,5.51
2022-12-07T08:45:24.941Z,5.51
2022-12-07T08:46:16.421Z,5.73
2022-12-07T08:46:53.630Z,5.68
2022-12-07T08:47:26.380Z,5.68
2022-12-07T08:48:02.896Z,5.80
2022-12-07T08:48:37.250Z,5.84
2022-12-07T08:49:22.727Z,5.93
2022-12-07T08:49:55.609Z,5.98
2022-12-07T08:50:27.759Z,5.97
2022-12-07T08:50:59.601Z,5.93
2022-12-07T08:51:31.457Z,5.90
2022-12-07T08:52:06.351Z,5.86
2022-12-07T08:52:38.514Z,5.78
2022-12-07T08:53:10.172Z,5.81
2022-12-07T08:53:44.810Z,5.84
2022-12-07T08:54:18.554Z,5.86
2022-12-07T08:54:50.348Z,5.86
2022-12-07T08:55:22.578Z,5.94
2022-12-07T08:55:54.393Z,5.91
2022-12-07T08:56:26.232Z,5.81
2022-12-07T08:56:59.663Z,5.86
2022-12-07T08:57:34.791Z,5.78
2022-12-07T08:58:06.773Z,5.67
2022-12-07T08:58:39.775Z,5.64
2022-12-07T08:59:13.723Z,5.66
2022-12-07T08:59:45.542Z,5.71
2022-12-07T09:00:20.471Z,5.73
2022-12-07T09:00:52.104Z,5.80
2022-12-07T09:01:23.950Z,5.36
2022-12-07T09:01:55.711Z,5.51
2022-12-07T09:02:27.492Z,5.44
2022-12-07T09:02:59.631Z,5.47
2022-12-07T09:03:31.688Z,5.68
2022-12-07T09:04:03.312Z,5.68
2022-12-07T09:04:34.888Z,5.63
2022-12-07T09:05:09.536Z,5.60
2022-12-07T09:05:45.068Z,5.81
2022-12-07T09:06:16.757Z,5.60
2022-12-07T09:06:49.301Z,5.20
2022-12-07T09:07:21.034Z,5.33
2022-12-07T09:07:57.394Z,5.42
2022-12-07T09:08:37.062Z,5.39
2022-12-07T09:09:10.500Z,5.53
2022-12-07T09:09:42.855Z,5.43
2022-12-07T09:10:14.523Z,5.54
2022-12-07T09:10:46.478Z,5.57
2022-12-07T09:11:18.051Z,5.71
2022-12-07T09:12:45.112Z,5.50
2022-12-07T09:13:16.697Z,5.44
2022-12-07T09:13:48.370Z,5.61
2022-12-07T09:14:19.972Z,5.61
2022-12-07T09:14:51.615Z,5.57
2022-12-07T09:15:23.223Z,5.71
2022-12-07T09:15:54.824Z,5.56
2022-12-07T09:16:26.494Z,5.77
2022-12-07T09:17:09.607Z,5.95
2022-12-07T09:17:41.254Z,5.94
2022-12-07T09:18:12.897Z,5.99
2022-12-07T09:18:44.507Z,6.04
2022-12-07T09:19:16.088Z,6.30
2022-12-07T09:19:47.709Z,6.33
2022-12-07T09:20:22.137Z,6.39
2022-12-07T09:20:58.022Z,6.42
2022-12-07T09:21:29.675Z,6.67
2022-12-07T09:22:01.325Z,6.63
2022-12-07T09:22:34.446Z,6.47
2022-12-07T09:23:09.345Z,6.49
2022-12-07T09:23:43.702Z,6.52
2022-12-07T09:24:15.448Z,6.66
2022-12-07T09:24:47.106Z,6.75
2022-12-07T09:25:18.671Z,6.63
2022-12-07T09:25:50.395Z,6.76
2022-12-07T09:26:22.047Z,6.73
2022-12-07T09:26:53.618Z,6.88
2022-12-07T09:27:25.836Z,6.93
2022-12-07T09:27:59.870Z,6.93
2022-12-07T09:28:32.418Z,6.83
2022-12-07T09:29:04.205Z,6.84
2022-12-07T09:29:35.955Z,6.77
2022-12-07T09:30:08.202Z,6.98
2022-12-07T09:30:59.886Z,7.05
2022-12-07T09:31:31.675Z,7.01
2022-12-07T09:32:08.242Z,7.09
2022-12-07T09:32:42.938Z,7.21
2022-12-07T09:33:15.153Z,7.15
2022-12-07T09:33:46.948Z,7.24
2022-12-07T09:34:18.932Z,7.29
2022-12-07T09:34:50.861Z,7.39
2022-12-07T09:35:23.343Z,7.36
2022-12-07T09:35:55.299Z,7.32
2022-12-07T09:36:28.006Z,7.44
2022-12-07T09:37:03.998Z,7.41
2022-12-07T09:37:37.204Z,7.32
2022-12-07T09:38:08.802Z,7.08
2022-12-07T09:38:40.421Z,7.00
2022-12-07T09:39:12.051Z,7.07
2022-12-07T09:39:49.731Z,7.15
2022-12-07T09:40:24.406Z,7.03
2022-12-07T09:40:56.586Z,7.07
2022-12-07T09:41:30.299Z,7.14
2022-12-07T09:42:04.993Z,7.31
2022-12-07T09:42:46.955Z,7.19
2022-12-07T09:43:22.434Z,7.28
2022-12-07T09:44:03.356Z,7.29
2022-12-07T09:44:36.768Z,7.29
2022-12-07T09:45:15.277Z,7.42
2022-12-07T09:45:51.217Z,7.52
2022-12-07T09:46:23.261Z,7.48
2022-12-07T09:46:55.946Z,7.38
2022-12-07T09:47:28.630Z,7.52
2022-12-07T09:48:00.905Z,7.55
2022-12-07T09:48:40.100Z,7.59
2022-12-07T09:49:21.486Z,7.61
2022-12-07T09:49:56.468Z,7.62
2022-12-07T09:50:29.628Z,7.62
2022-12-07T09:51:02.431Z,7.46
2022-12-07T09:51:34.104Z,7.27
2022-12-07T09:52:08.823Z,7.24
2022-12-07T09:52:41.856Z,7.28
2022-12-07T09:53:35.457Z,7.44
2022-12-07T09:54:07.406Z,7.46
2022-12-07T09:54:44.764Z,7.49
2022-12-07T09:55:24.559Z,7.62
2022-12-07T09:55:56.651Z,7.61
2022-12-07T09:56:31.796Z,7.58
2022-12-07T09:57:04.244Z,7.52
2022-12-07T09:57:38.167Z,7.48
2022-12-07T09:58:27.458Z,7.28
2022-12-07T09:59:03.613Z,7.44
2022-12-07T09:59:36.822Z,7.58
2022-12-07T10:00:14.646Z,7.61
2022-12-07T10:00:46.537Z,7.45
2022-12-07T10:01:22.405Z,7.49
2022-12-07T10:01:54.297Z,7.28
2022-12-07T10:02:48.236Z,7.39
2022-12-07T10:03:19.957Z,7.52
2022-12-07T10:03:54.340Z,7.65
2022-12-07T10:04:26.960Z,7.66
2022-12-07T10:05:00.853Z,7.58
2022-12-07T10:05:35.583Z,7.65
2022-12-07T10:06:08.256Z,7.77
2022-12-07T10:06:40.043Z,7.75
2022-12-07T10:07:11.623Z,7.66
2022-12-07T10:07:43.470Z,7.76
2022-12-07T10:08:17.045Z,7.85
2022-12-07T10:08:50.100Z,7.79
2022-12-07T10:09:22.744Z,7.69
2022-12-07T10:09:54.443Z,7.70
2022-12-07T10:10:32.850Z,7.44
2022-12-07T10:11:11.650Z,7.62
2022-12-07T10:12:10.408Z,7.72
2022-12-07T10:13:09.288Z,7.63
2022-12-07T10:13:47.910Z,7.41
2022-12-07T10:14:19.523Z,7.52
2022-12-07T10:15:07.332Z,7.66
2022-12-07T10:16:07.143Z,7.80
2022-12-07T10:16:42.617Z,7.94
2022-12-07T10:17:49.580Z,7.93
2022-12-07T10:18:42.653Z,7.98
2022-12-07T10:19:29.963Z,8.03
2022-12-07T10:20:15.327Z,8.35
2022-12-07T10:20:48.500Z,8.38
2022-12-07T10:21:24.775Z,8.65
2022-12-07T10:22:14.327Z,9.07
2022-12-07T10:22:56.177Z,9.28
2022-12-07T10:23:27.794Z,9.17
2022-12-07T10:24:11.294Z,9.12
2022-12-07T10:24:45.059Z,8.99
2022-12-07T10:25:22.121Z,9.07
2022-12-07T10:25:56.004Z,8.97
2022-12-07T10:26:51.134Z,8.83
2022-12-07T10:27:33.405Z,8.71
2022-12-07T10:28:17.989Z,8.64
2022-12-07T10:28:49.747Z,8.59
2022-12-07T10:29:34.421Z,8.59
2022-12-07T10:30:34.548Z,8.66
2022-12-07T10:31:20.061Z,8.72
2022-12-07T10:31:58.758Z,8.71
2022-12-07T10:32:37.985Z,8.41
2022-12-07T10:33:32.929Z,8.48
2022-12-07T10:34:04.550Z,8.38
2022-12-07T10:34:42.618Z,8.64
2022-12-07T10:35:24.475Z,8.51
2022-12-07T10:35:56.366Z,8.52
2022-12-07T10:36:33.651Z,8.41
2022-12-07T10:37:14.182Z,8.27
2022-12-07T10:37:46.725Z,7.91
2022-12-07T10:38:18.334Z,8.04
2022-12-07T10:38:53.775Z,7.91
2022-12-07T10:39:25.338Z,8.14
2022-12-07T10:39:58.258Z,7.70
2022-12-07T10:40:36.513Z,7.87
2022-12-07T10:41:09.101Z,7.98
2022-12-07T10:42:04.030Z,8.24
2022-12-07T10:42:35.611Z,8.38
2022-12-07T10:43:27.466Z,8.28
2022-12-07T10:43:59.275Z,8.30
2022-12-07T10:44:33.265Z,8.11
2022-12-07T10:45:25.955Z,8.31
2022-12-07T10:46:14.601Z,8.37
2022-12-07T10:47:06.184Z,8.20
2022-12-07T10:47:48.498Z,8.17
2022-12-07T10:48:38.772Z,8.10
2022-12-07T10:49:37.458Z,8.07
2022-12-07T10:50:38.247Z,7.82
2022-12-07T10:51:39.584Z,7.90
2022-12-07T10:52:32.843Z,7.93
2022-12-07T10:53:04.435Z,7.90
2022-12-07T10:54:02.148Z,8.04
2022-12-07T10:54:55.450Z,8.41
2022-12-07T10:55:49.999Z,8.44
2022-12-07T10:56:36.323Z,8.58
2022-12-07T10:57:29.439Z,8.65
2022-12-07T10:58:07.424Z,8.64
2022-12-07T10:59:01.552Z,8.62
2022-12-07T10:59:43.062Z,8.92
2022-12-07T11:00:20.982Z,8.76
2022-12-07T11:01:18.169Z,8.92
2022-12-07T11:01:58.631Z,9.04
2022-12-07T11:03:00.761Z,8.82
2022-12-07T11:03:47.435Z,8.52
2022-12-07T11:05:07.244Z,8.75
2022-12-07T11:05:44.568Z,8.72
2022-12-07T11:06:25.296Z,8.83
2022-12-07T11:07:23.173Z,8.89
2022-12-07T11:08:17.907Z,8.69
2022-12-07T11:08:52.574Z,9.64
2022-12-07T11:10:10.293Z,10.17
2022-12-07T11:11:28.942Z,9.93
2022-12-07T11:12:09.615Z,9.51
2022-12-07T11:13:02.825Z,9.65
2022-12-07T11:13:53.043Z,9.61
2022-12-07T11:14:52.630Z,9.47
2022-12-07T11:15:30.332Z,9.72
2022-12-07T11:16:01.921Z,9.54
2022-12-07T11:16:36.347Z,9.55
2022-12-07T11:17:37.391Z,9.48
2022-12-07T11:18:25.330Z,9.34
2022-12-07T11:18:59.767Z,9.20
2022-12-07T11:19:52.405Z,9.24
2022-12-07T11:20:35.999Z,9.06
2022-12-07T11:21:16.160Z,9.17
2022-12-07T11:21:58.833Z,9.23
2022-12-07T11:22:55.033Z,9.24
2022-12-07T11:23:48.652Z,9.26
2022-12-07T11:24:41.896Z,9.23
2022-12-07T11:25:31.461Z,8.76
2022-12-07T11:26:18.484Z,8.72
2022-12-07T11:26:58.853Z,8.72
2022-12-07T11:27:43.297Z,8.61
2022-12-07T11:28:29.942Z,8.65
2022-12-07T11:29:28.568Z,8.56
2022-12-07T11:30:13.576Z,8.55
2022-12-07T11:31:24.530Z,8.59
2022-12-07T11:32:35.779Z,8.31
2022-12-07T11:33:23.163Z,8.41
2022-12-07T11:34:05.680Z,8.58
2022-12-07T11:35:08.097Z,8.62
2022-12-07T11:36:11.896Z,8.49
2022-12-07T11:36:50.715Z,8.72
2022-12-07T11:37:29.167Z,8.77
2022-12-07T11:38:09.488Z,8.72
2022-12-07T11:38:52.924Z,8.37
2022-12-07T11:39:31.683Z,8.35
2022-12-07T11:40:06.480Z,8.28
2022-12-07T11:40:40.948Z,8.30
2022-12-07T11:41:14.197Z,8.35
2022-12-07T11:41:49.315Z,8.23
2022-12-07T11:42:26.243Z,8.14
2022-12-07T11:43:05.471Z,8.10
2022-12-07T11:43:37.101Z,7.96
2022-12-07T11:44:32.419Z,8.08
2022-12-07T11:45:20.719Z,8.27
2022-12-07T11:46:03.697Z,8.38
2022-12-07T11:46:50.478Z,8.54
2022-12-07T11:47:46.349Z,8.59
2022-12-07T11:48:34.542Z,8.66
2022-12-07T11:49:40.615Z,8.62
2022-12-07T11:51:05.644Z,8.61
2022-12-07T11:51:40.071Z,8.55
2022-12-07T11:52:27.372Z,8.27
2022-12-07T11:53:36.244Z,8.17
2022-12-07T11:54:18.991Z,7.87
2022-12-07T11:54:54.043Z,7.90
2022-12-07T11:55:41.353Z,7.90
2022-12-07T11:56:14.363Z,8.00
2022-12-07T11:56:51.527Z,7.98
2022-12-07T11:57:42.971Z,8.08
2022-12-07T11:58:49.810Z,8.04
2022-12-07T11:59:33.971Z,8.18
2022-12-07T12:00:13.241Z,8.33
2022-12-07T12:00:45.244Z,8.35
2022-12-07T12:01:42.838Z,8.24
2022-12-07T12:02:25.234Z,8.25
2022-12-07T12:03:04.546Z,8.27
2022-12-07T12:03:41.649Z,8.17
2022-12-07T12:04:13.264Z,8.21
2022-12-07T12:05:16.257Z,8.24
2022-12-07T12:05:48.127Z,8.24
2022-12-07T12:06:20.660Z,8.27
2022-12-07T12:06:52.859Z,8.30
2022-12-07T12:10:25.531Z,8.00
2022-12-07T12:11:15.292Z,8.17
2022-12-07T12:14:43.337Z,8.24
2022-12-07T12:15:27.124Z,8.17
2022-12-07T12:16:19.803Z,8.03
2022-12-07T12:17:04.156Z,8.11
2022-12-07T12:17:38.825Z,8.08
2022-12-07T12:18:33.755Z,8.16
2022-12-07T12:19:25.564Z,8.18
2022-12-07T12:20:24.842Z,8.21
2022-12-07T12:20:58.617Z,8.24
2022-12-07T12:21:33.338Z,8.17
2022-12-07T12:22:29.509Z,8.13
2022-12-07T12:23:08.091Z,8.10
2022-12-07T12:23:44.516Z,8.17
2022-12-07T12:24:24.068Z,8.27
2022-12-07T12:24:57.283Z,8.28
2022-12-07T12:25:32.949Z,8.30
2022-12-07T12:26:08.113Z,8.42
2022-12-07T12:26:40.299Z,8.45
2022-12-07T12:27:24.499Z,8.61
2022-12-07T12:27:59.471Z,8.48
2022-12-07T12:28:45.294Z,8.61
2022-12-07T12:29:34.583Z,8.66
2022-12-07T12:30:24.255Z,8.61
2022-12-07T12:31:10.578Z,8.58
2022-12-07T12:31:43.157Z,8.58
2022-12-07T12:32:25.275Z,8.58
2022-12-07T12:33:05.388Z,8.55
2022-12-07T12:33:39.311Z,8.55
2022-12-07T12:34:35.550Z,8.41
2022-12-07T12:35:31.587Z,8.56
2022-12-07T12:36:26.657Z,8.77
2022-12-07T12:36:58.567Z,8.77
2022-12-07T12:37:35.937Z,8.76
2022-12-07T12:38:25.685Z,8.82
2022-12-07T12:39:00.372Z,8.83
2022-12-07T12:39:32.079Z,8.71
2022-12-07T12:40:15.829Z,8.73
2022-12-07T12:40:51.044Z,8.66
2022-12-07T12:41:47.001Z,8.54
2022-12-07T12:42:21.492Z,8.59
2022-12-07T12:42:57.865Z,8.69
2022-12-07T12:43:53.388Z,8.71
2022-12-07T12:44:33.112Z,8.52
2022-12-07T12:45:18.893Z,8.44
2022-12-07T12:45:50.560Z,8.24
2022-12-07T12:46:31.582Z,8.20
2022-12-07T12:47:04.448Z,8.23
2022-12-07T12:47:52.611Z,8.23
2022-12-07T12:48:30.441Z,8.21
2022-12-07T12:49:17.110Z,8.28
2022-12-07T12:50:16.866Z,8.30
2022-12-07T12:50:48.483Z,8.27
2022-12-07T12:51:40.725Z,8.01
2022-12-07T12:52:15.314Z,8.01
2022-12-07T12:52:53.407Z,7.98
2022-12-07T12:53:27.787Z,7.94
2022-12-07T12:54:11.810Z,7.86
2022-12-07T12:55:12.659Z,7.76
2022-12-07T12:55:44.218Z,7.77
2022-12-07T12:56:48.074Z,7.77
2022-12-07T12:57:31.578Z,7.55
2022-12-07T12:58:21.304Z,7.62
2022-12-07T12:59:32.109Z,7.65
2022-12-07T13:00:25.941Z,7.70
2022-12-07T13:01:28.505Z,7.61
2022-12-07T13:02:02.855Z,7.63
2022-12-07T13:02:53.290Z,7.67
2022-12-07T13:03:31.065Z,7.73
2022-12-07T13:04:15.454Z,7.65
2022-12-07T13:04:54.725Z,7.62
2022-12-07T13:05:28.960Z,7.62
2022-12-07T13:06:25.894Z,7.63
2022-12-07T13:06:57.514Z,7.55
2022-12-07T13:07:47.085Z,7.54
2022-12-07T13:08:29.398Z,7.38
2022-12-07T13:09:06.171Z,7.45
2022-12-07T13:09:42.992Z,7.54
2022-12-07T13:10:29.694Z,7.54
2022-12-07T13:11:38.880Z,7.54
2022-12-07T13:12:16.688Z,7.59
2022-12-07T13:13:03.346Z,7.62
2022-12-07T13:13:36.559Z,7.67
2022-12-07T13:14:42.261Z,7.70
2022-12-07T13:15:51.829Z,7.72
2022-12-07T13:16:23.453Z,7.65
2022-12-07T13:16:55.172Z,7.66
2022-12-07T13:17:33.163Z,7.67
2022-12-07T13:18:29.592Z,7.66
2022-12-07T13:19:01.275Z,7.69
2022-12-07T13:19:41.935Z,7.54
2022-12-07T13:20:47.200Z,7.52
2022-12-07T13:21:19.023Z,7.45
2022-12-07T13:21:52.074Z,7.41
2022-12-07T13:22:33.136Z,7.39
2022-12-07T13:23:07.253Z,7.24
2022-12-07T13:23:45.341Z,7.32
2022-12-07T13:24:17.658Z,7.32
2022-12-07T13:24:49.360Z,7.22
2022-12-07T13:25:34.915Z,7.18
2022-12-07T13:26:18.033Z,7.25
2022-12-07T13:26:56.671Z,7.24
2022-12-07T13:27:28.610Z,7.19
2022-12-07T13:28:11.994Z,7.22
2022-12-07T13:29:08.740Z,7.28
2022-12-07T13:29:40.305Z,7.27
2022-12-07T13:30:17.865Z,7.34
2022-12-07T13:31:32.940Z,7.36
2022-12-07T13:32:04.825Z,7.24
2022-12-07T13:32:36.815Z,7.19
2022-12-07T13:33:10.771Z,7.21
2022-12-07T13:33:49.087Z,7.14
2022-12-07T13:34:39.138Z,7.05
2022-12-07T13:35:31.317Z,7.08
2022-12-07T13:36:03.932Z,7.08
2022-12-07T13:36:40.660Z,7.05
2022-12-07T13:37:12.788Z,7.05
2022-12-07T13:37:45.788Z,7.11
2022-12-07T13:38:33.199Z,7.14
2022-12-07T13:39:23.806Z,7.03
2022-12-07T13:39:56.234Z,7.08
2022-12-07T13:40:28.392Z,7.12
2022-12-07T13:41:06.120Z,6.96
2022-12-07T13:41:37.902Z,6.94
2022-12-07T13:42:23.898Z,7.03
2022-12-07T13:43:01.002Z,7.03
2022-12-07T13:43:43.590Z,7.01
2022-12-07T13:44:17.546Z,7.07
2022-12-07T13:44:50.241Z,7.00
2022-12-07T13:45:47.382Z,6.96
2022-12-07T13:46:27.777Z,6.98
2022-12-07T13:47:23.921Z,6.90
2022-12-07T13:48:00.676Z,6.93
2022-12-07T13:48:36.090Z,7.01
2022-12-07T13:49:18.785Z,7.03
2022-12-07T13:49:56.454Z,7.07
2022-12-07T13:50:31.071Z,6.98
2022-12-07T13:51:04.688Z,7.00
2022-12-07T13:51:38.008Z,6.86
2022-12-07T13:52:16.103Z,6.91
2022-12-07T13:52:49.814Z,6.93
2022-12-07T13:53:22.182Z,6.91
2022-12-07T13:54:02.391Z,6.75
2022-12-07T13:54:34.127Z,6.81
2022-12-07T13:55:05.863Z,6.81
2022-12-07T13:55:49.482Z,6.70
2022-12-07T13:56:32.787Z,6.76
2022-12-07T13:57:04.763Z,6.70
2022-12-07T13:57:37.659Z,6.76
2022-12-07T13:58:10.328Z,6.77
2022-12-07T13:58:42.253Z,6.67
2022-12-07T13:59:25.881Z,6.67
2022-12-07T13:59:59.679Z,6.73
2022-12-07T14:00:31.497Z,6.73
2022-12-07T14:01:03.531Z,6.73
2022-12-07T14:01:35.466Z,6.72
2022-12-07T14:02:56.025Z,6.69
2022-12-07T14:03:34.545Z,6.66
2022-12-07T14:04:20.652Z,6.66
2022-12-07T14:04:53.121Z,6.69
2022-12-07T14:05:30.616Z,6.72
2022-12-07T14:06:08.830Z,6.67
2022-12-07T14:06:50.078Z,6.54
2022-12-07T14:07:30.073Z,6.56
2022-12-07T14:08:05.999Z,6.43
2022-12-07T14:08:37.929Z,6.46
2022-12-07T14:09:25.287Z,6.45
2022-12-07T14:10:03.836Z,6.45
2022-12-07T14:10:39.978Z,6.47
2022-12-07T14:11:19.338Z,6.52
2022-12-07T14:11:53.973Z,6.50
2022-12-07T14:12:27.255Z,6.53
2022-12-07T14:13:00.207Z,6.43
2022-12-07T14:13:42.606Z,6.43
2022-12-07T14:14:21.211Z,6.38
2022-12-07T14:14:53.968Z,6.26
2022-12-07T14:15:29.905Z,6.25
2022-12-07T14:16:04.166Z,6.36
2022-12-07T14:16:38.214Z,6.29
2022-12-07T14:17:17.705Z,6.30
2022-12-07T14:17:53.986Z,6.33
2022-12-07T14:18:32.317Z,6.29
2022-12-07T14:19:07.157Z,6.36
2022-12-07T14:19:53.439Z,6.32
2022-12-07T14:20:38.601Z,6.33
2022-12-07T14:21:10.479Z,6.40
2022-12-07T14:21:42.135Z,6.36
2022-12-07T14:22:30.851Z,6.40
2022-12-07T14:23:10.253Z,6.47
2022-12-07T14:23:42.847Z,6.47
2022-12-07T14:24:21.359Z,6.40
2022-12-07T14:25:19.867Z,6.32
2022-12-07T14:25:53.824Z,6.38
2022-12-07T14:26:26.287Z,6.33
2022-12-07T14:26:57.846Z,6.33
2022-12-07T14:27:35.136Z,6.35
2022-12-07T14:28:50.770Z,6.33
2022-12-07T14:29:31.308Z,6.30
2022-12-07T14:30:05.209Z,6.26
2022-12-07T14:30:36.901Z,6.22
2022-12-07T14:31:19.070Z,6.19
2022-12-07T14:31:56.622Z,6.22
2022-12-07T14:32:30.344Z,6.26
2022-12-07T14:33:04.315Z,6.19
2022-12-07T14:33:35.935Z,6.17
2022-12-07T14:34:13.281Z,6.19
2022-12-07T14:35:01.930Z,6.26
2022-12-07T14:35:33.781Z,6.15
2022-12-07T14:36:05.547Z,6.19
2022-12-07T14:36:37.123Z,6.19
2022-12-07T14:37:11.732Z,6.19
2022-12-07T14:37:46.074Z,6.15
2022-12-07T14:38:19.584Z,6.08
2022-12-07T14:38:51.182Z,6.14
2022-12-07T14:39:22.892Z,6.11
2022-12-07T14:39:54.629Z,6.07
2022-12-07T14:40:30.978Z,6.11
2022-12-07T14:41:21.573Z,6.11
2022-12-07T14:41:53.203Z,6.15
2022-12-07T14:42:28.667Z,6.15
2022-12-07T14:43:03.581Z,6.14
2022-12-07T14:43:35.173Z,6.08
2022-12-07T14:44:33.771Z,6.05
2022-12-07T14:45:04.920Z,6.11
2022-12-07T14:45:36.980Z,6.14
2022-12-07T14:46:10.309Z,6.07
2022-12-07T14:46:41.977Z,6.05
2022-12-07T14:49:48.666Z,6.04
2022-12-07T14:50:21.481Z,6.04